createdAt,value
2022-10-11T00:01:20.110Z,102868.41
2022-10-11T00:03:47.028Z,102869.34
2022-10-11T00:06:13.551Z,102877.84
2022-10-11T00:08:40.025Z,102875.66
2022-10-11T00:11:07.681Z,102877.97
2022-10-11T00:13:35.120Z,102881.53
2022-10-11T00:16:07.462Z,102881.56
2022-10-11T00:18:34.248Z,102880.56
2022-10-11T00:21:09.600Z,102872.25
2022-10-11T00:23:36.282Z,102876.69
2022-10-11T00:26:05.491Z,102882.78
2022-10-11T00:28:33.226Z,102879.31
2022-10-11T00:31:00.447Z,102883.50
2022-10-11T00:33:27.076Z,102883.50
2022-10-11T00:35:53.600Z,102879.63
2022-10-11T00:38:20.122Z,102889.56
2022-10-11T00:40:46.623Z,102878.25
2022-10-11T00:43:23.082Z,102887.19
2022-10-11T00:45:55.530Z,102893.63
2022-10-11T00:48:24.047Z,102888.66
2022-10-11T00:50:50.565Z,102893.38
2022-10-11T00:53:17.038Z,102896.09
2022-10-11T00:55:51.762Z,102898.63
2022-10-11T00:58:19.164Z,102910.41
2022-10-11T01:00:46.346Z,102890.25
2022-10-11T01:03:12.847Z,102888.56
2022-10-11T01:05:40.007Z,102887.94
2022-10-11T01:08:08.399Z,102893.38
2022-10-11T01:10:35.324Z,102898.84
2022-10-11T01:13:23.382Z,102899.66
2022-10-11T01:16:00.837Z,102901.19
2022-10-11T01:18:40.250Z,102899.19
2022-10-11T01:21:36.800Z,102911.88
2022-10-11T01:24:08.951Z,102905.34
2022-10-11T01:26:53.552Z,102926.53
2022-10-11T01:29:47.739Z,102910.13
2022-10-11T01:32:31.026Z,102909.34
2022-10-11T01:34:57.414Z,102912.84
2022-10-11T01:37:41.569Z,102908.59
2022-10-11T01:40:43.534Z,102909.34
2022-10-11T01:43:10.258Z,102912.59
2022-10-11T01:45:37.845Z,102902.75
2022-10-11T01:48:07.723Z,102909.44
2022-10-11T01:50:39.627Z,102918.38
2022-10-11T01:53:30.812Z,102929.50
2022-10-11T01:55:57.205Z,102924.13
2022-10-11T01:58:42.030Z,102922.84
2022-10-11T02:01:49.965Z,102925.78
2022-10-11T02:04:20.067Z,102916.94
2022-10-11T02:07:07.924Z,102912.22
2022-10-11T02:09:49.324Z,102919.63
2022-10-11T02:12:44.427Z,102925.00
2022-10-11T02:15:13.985Z,102924.50
2022-10-11T02:17:45.643Z,102931.00
2022-10-11T02:20:19.361Z,102922.09
2022-10-11T02:22:49.830Z,102921.75
2022-10-11T02:25:23.695Z,102921.03
2022-10-11T02:27:54.990Z,102921.66
2022-10-11T02:30:21.559Z,102918.84
2022-10-11T02:32:50.356Z,102918.41
2022-10-11T02:35:17.631Z,102923.84
2022-10-11T02:38:02.448Z,102933.41
2022-10-11T02:40:40.659Z,102924.28
2022-10-11T02:43:28.577Z,102937.09
2022-10-11T02:45:59.948Z,102931.44
2022-10-11T02:48:29.656Z,102927.78
2022-10-11T02:50:57.678Z,102928.31
2022-10-11T02:53:25.571Z,102934.19
2022-10-11T02:55:53.739Z,102938.38
2022-10-11T02:58:20.663Z,102930.09
2022-10-11T03:00:47.354Z,102936.22
2022-10-11T03:03:13.893Z,102937.75
2022-10-11T03:05:40.656Z,102953.78
2022-10-11T03:08:15.047Z,102941.97
2022-10-11T03:10:42.011Z,102959.56
2022-10-11T03:13:08.577Z,102948.25
2022-10-11T03:15:35.218Z,102940.97
2022-10-11T03:18:01.796Z,102943.66
2022-10-11T03:20:28.262Z,102947.28
2022-10-11T03:22:54.800Z,102945.69
2022-10-11T03:25:21.242Z,102954.56
2022-10-11T03:27:47.741Z,102965.41
2022-10-11T03:30:18.280Z,102951.84
2022-10-11T03:32:45.210Z,102955.81
2022-10-11T03:35:11.771Z,102956.50
2022-10-11T03:37:38.268Z,102954.59
2022-10-11T03:40:08.187Z,102953.66
2022-10-11T03:42:35.322Z,102955.22
2022-10-11T03:45:04.781Z,102957.25
2022-10-11T03:47:31.917Z,102970.31
2022-10-11T03:49:58.376Z,102963.13
2022-10-11T03:52:24.890Z,102965.13
2022-10-11T03:54:51.541Z,102961.56
2022-10-11T03:57:18.032Z,102974.75
2022-10-11T03:59:44.595Z,102967.78
2022-10-11T04:02:11.253Z,102981.81
2022-10-11T04:04:37.790Z,102974.41
2022-10-11T04:07:04.318Z,102986.50
2022-10-11T04:09:31.116Z,102975.81
2022-10-11T04:11:57.701Z,102974.25
2022-10-11T04:14:24.263Z,102979.66
2022-10-11T04:16:50.728Z,102986.94
2022-10-11T04:19:17.231Z,102978.69
2022-10-11T04:21:43.706Z,102987.19
2022-10-11T04:24:11.678Z,102992.72
2022-10-11T04:26:38.425Z,102996.19
2022-10-11T04:29:06.128Z,103003.13
2022-10-11T04:31:32.642Z,103005.88
2022-10-11T04:33:59.178Z,103002.75
2022-10-11T04:36:25.720Z,103007.44
2022-10-11T04:38:52.222Z,103009.22
2022-10-11T04:41:18.657Z,103006.44
2022-10-11T04:43:45.120Z,103011.22
2022-10-11T04:46:11.982Z,103009.75
2022-10-11T04:48:38.641Z,103009.59
2022-10-11T04:51:05.438Z,103013.53
2022-10-11T04:53:31.905Z,103009.44
2022-10-11T04:56:02.519Z,103021.66
2022-10-11T04:58:30.982Z,103020.88
2022-10-11T05:00:57.862Z,103017.34
2022-10-11T05:03:25.342Z,103023.41
2022-10-11T05:05:53.182Z,103027.75
2022-10-11T05:08:20.424Z,103018.91
2022-10-11T05:10:57.801Z,103022.41
2022-10-11T05:13:25.114Z,103021.38
2022-10-11T05:15:51.857Z,103025.47
2022-10-11T05:18:18.673Z,103017.78
2022-10-11T05:20:45.319Z,103022.38
2022-10-11T05:23:12.077Z,103023.56
2022-10-11T05:25:38.782Z,103027.00
2022-10-11T05:28:05.395Z,103035.53
2022-10-11T05:30:31.934Z,103027.00
2022-10-11T05:32:58.630Z,103027.56
2022-10-11T05:35:25.173Z,103037.09
2022-10-11T05:37:51.640Z,103027.41
2022-10-11T05:40:18.328Z,103032.91
2022-10-11T05:42:44.844Z,103038.69
2022-10-11T05:45:11.302Z,103035.09
2022-10-11T05:47:37.754Z,103032.16
2022-10-11T05:50:04.421Z,103042.69
2022-10-11T05:52:30.889Z,103031.84
2022-10-11T05:54:57.366Z,103043.84
2022-10-11T05:57:23.912Z,103047.09
2022-10-11T05:59:50.362Z,103051.50
2022-10-11T06:02:16.851Z,103047.38
2022-10-11T06:04:43.351Z,103044.41
2022-10-11T06:07:09.868Z,103055.06
2022-10-11T06:09:36.466Z,103055.06
2022-10-11T06:12:03.061Z,103052.44
2022-10-11T06:14:29.597Z,103055.91
2022-10-11T06:16:56.092Z,103058.53
2022-10-11T06:19:22.683Z,103066.31
2022-10-11T06:21:49.297Z,103070.63
2022-10-11T06:24:15.773Z,103069.25
2022-10-11T06:26:42.250Z,103072.22
2022-10-11T06:29:08.847Z,103078.56
2022-10-11T06:31:35.655Z,103072.91
2022-10-11T06:34:02.278Z,103084.13
2022-10-11T06:36:28.858Z,103072.78
2022-10-11T06:38:55.785Z,103083.91
2022-10-11T06:41:26.897Z,103077.03
2022-10-11T06:43:53.457Z,103083.78
2022-10-11T06:46:21.964Z,103076.91
2022-10-11T06:48:49.833Z,103077.88
2022-10-11T06:51:18.455Z,103083.44
2022-10-11T06:53:50.393Z,103085.19
2022-10-11T06:56:17.245Z,103089.50
2022-10-11T06:58:43.776Z,103093.38
2022-10-11T07:01:16.457Z,103095.22
2022-10-11T07:03:43.319Z,103094.03
2022-10-11T07:06:14.724Z,103097.97
2022-10-11T07:08:41.339Z,103110.75
2022-10-11T07:11:13.475Z,103108.97
2022-10-11T07:13:41.168Z,103105.31
2022-10-11T07:16:13.250Z,103125.75
2022-10-11T07:18:43.149Z,103120.59
2022-10-11T07:21:13.453Z,103111.38
2022-10-11T07:23:42.316Z,103120.28
2022-10-11T07:26:10.439Z,103117.41
2022-10-11T07:28:38.352Z,103111.56
2022-10-11T07:31:08.519Z,103128.13
2022-10-11T07:33:34.993Z,103119.47
2022-10-11T07:36:02.397Z,103131.09
2022-10-11T07:38:29.255Z,103129.78
2022-10-11T07:40:55.989Z,103128.47
2022-10-11T07:43:23.707Z,103133.00
2022-10-11T07:45:57.727Z,103136.84
2022-10-11T07:48:24.334Z,103133.09
2022-10-11T07:50:50.773Z,103123.88
2022-10-11T07:53:18.441Z,103140.56
2022-10-11T07:55:45.069Z,103133.69
2022-10-11T07:58:13.089Z,103141.84
2022-10-11T08:00:42.284Z,103144.16
2022-10-11T08:03:10.424Z,103143.75
2022-10-11T08:05:39.064Z,103142.75
2022-10-11T08:08:05.742Z,103141.03
2022-10-11T08:10:38.198Z,103144.44
2022-10-11T08:13:05.410Z,103149.94
2022-10-11T08:15:31.886Z,103148.31
2022-10-11T08:17:58.376Z,103158.13
2022-10-11T08:20:25.024Z,103151.09
2022-10-11T08:22:51.502Z,103169.59
2022-10-11T08:25:18.186Z,103156.97
2022-10-11T08:27:44.683Z,103155.47
2022-10-11T08:30:11.748Z,103165.69
2022-10-11T08:32:38.230Z,103178.16
2022-10-11T08:35:05.601Z,103171.66
2022-10-11T08:37:32.127Z,103181.16
2022-10-11T08:39:58.805Z,103178.13
2022-10-11T08:42:33.590Z,103177.34
2022-10-11T08:45:11.790Z,103180.63
2022-10-11T08:47:45.395Z,103172.91
2022-10-11T08:50:23.794Z,103189.00
2022-10-11T08:52:59.374Z,103194.59
2022-10-11T08:55:40.021Z,103192.19
2022-10-11T08:58:06.688Z,103198.88
2022-10-11T09:00:36.205Z,103190.50
2022-10-11T09:03:21.435Z,103195.75
2022-10-11T09:06:16.407Z,103203.91
2022-10-11T09:09:24.548Z,103200.16
2022-10-11T09:12:07.875Z,103202.88
2022-10-11T09:14:45.317Z,103202.13
2022-10-11T09:17:47.297Z,103200.44
2022-10-11T09:20:22.455Z,103203.19
2022-10-11T09:23:13.122Z,103203.16
2022-10-11T09:25:58.964Z,103200.19
2022-10-11T09:28:43.893Z,103200.44
2022-10-11T09:31:13.610Z,103208.66
2022-10-11T09:33:49.135Z,103212.94
2022-10-11T09:37:00.451Z,103211.66
2022-10-11T09:40:24.102Z,103206.72
2022-10-11T09:42:51.648Z,103205.63
2022-10-11T09:45:23.781Z,103191.94
2022-10-11T09:47:54.126Z,103205.09
2022-10-11T09:50:25.794Z,103196.66
2022-10-11T09:52:56.159Z,103199.25
2022-10-11T09:55:52.364Z,103193.53
2022-10-11T09:58:38.514Z,103197.25
2022-10-11T10:01:08.524Z,103193.88
2022-10-11T10:03:53.006Z,103190.34
2022-10-11T10:06:24.566Z,103196.13
2022-10-11T10:08:51.215Z,103194.00
2022-10-11T10:11:19.916Z,103181.88
2022-10-11T10:13:56.590Z,103189.84
2022-10-11T10:16:30.567Z,103185.88
2022-10-11T10:19:00.480Z,103184.47
2022-10-11T10:21:46.005Z,103175.50
2022-10-11T10:24:37.100Z,103167.59
2022-10-11T10:27:06.362Z,103171.63
2022-10-11T10:29:33.167Z,103176.94
2022-10-11T10:32:14.344Z,103172.38
2022-10-11T10:34:58.832Z,103176.38
2022-10-11T10:37:53.740Z,103169.59
2022-10-11T10:40:26.599Z,103173.88
2022-10-11T10:42:53.351Z,103176.00
2022-10-11T10:45:26.918Z,103173.34
2022-10-11T10:48:41.744Z,103175.84
2022-10-11T10:51:52.919Z,103172.56
2022-10-11T10:54:50.178Z,103178.50
2022-10-11T10:57:23.660Z,103174.81
2022-10-11T11:00:14.187Z,103171.25
2022-10-11T11:03:03.753Z,103177.28
2022-10-11T11:05:41.526Z,103168.59
2022-10-11T11:08:32.712Z,103159.25
2022-10-11T11:11:33.542Z,103167.81
2022-10-11T11:14:40.127Z,103169.72
2022-10-11T11:17:22.181Z,103158.72
2022-10-11T11:20:13.929Z,103151.47
2022-10-11T11:23:07.394Z,103155.75
2022-10-11T11:26:08.507Z,103155.72
2022-10-11T11:28:43.169Z,103152.75
2022-10-11T11:31:28.753Z,103143.88
2022-10-11T11:34:05.738Z,103135.97
2022-10-11T11:36:52.268Z,103132.78
2022-10-11T11:39:22.708Z,103143.28
2022-10-11T11:42:11.454Z,103146.19
2022-10-11T11:44:47.137Z,103138.84
2022-10-11T11:47:37.840Z,103150.94
2022-10-11T11:50:22.895Z,103141.63
2022-10-11T11:53:05.115Z,103135.31
2022-10-11T11:55:43.343Z,103127.84
2022-10-11T11:58:30.294Z,103125.00
2022-10-11T12:01:22.503Z,103126.16
2022-10-11T12:03:56.089Z,103121.53
2022-10-11T12:06:28.581Z,103120.78
2022-10-11T12:09:06.206Z,103118.56
2022-10-11T12:11:56.452Z,103113.28
2022-10-11T12:14:33.929Z,103108.59
2022-10-11T12:17:22.949Z,103106.22
2022-10-11T12:20:14.721Z,103115.78
2022-10-11T12:22:50.071Z,103109.59
2022-10-11T12:25:22.559Z,103100.66
2022-10-11T12:27:50.328Z,103099.13
2022-10-11T12:30:44.665Z,103096.47
2022-10-11T12:33:33.413Z,103089.84
2022-10-11T12:36:22.474Z,103101.78
2022-10-11T12:39:20.949Z,103094.22
2022-10-11T12:41:47.397Z,103090.69
2022-10-11T12:44:24.524Z,103083.34
2022-10-11T12:47:13.198Z,103083.13
2022-10-11T12:50:24.866Z,103068.44
2022-10-11T12:53:03.479Z,103071.56
2022-10-11T12:55:45.044Z,103071.31
2022-10-11T12:58:40.642Z,103074.31
2022-10-11T13:01:09.320Z,103067.38
2022-10-11T13:03:44.910Z,103064.31
2022-10-11T13:06:11.767Z,103058.59
2022-10-11T13:08:43.290Z,103062.00
2022-10-11T13:11:11.857Z,103049.63
2022-10-11T13:13:45.216Z,103056.50
2022-10-11T13:16:21.542Z,103055.25
2022-10-11T13:18:50.535Z,103051.84
2022-10-11T13:21:28.850Z,103049.31
2022-10-11T13:23:58.953Z,103043.56
2022-10-11T13:26:27.833Z,103053.44
2022-10-11T13:28:54.805Z,103039.34
2022-10-11T13:31:23.151Z,103042.00
2022-10-11T13:33:55.067Z,103041.09
2022-10-11T13:36:24.354Z,103032.66
2022-10-11T13:39:00.292Z,103032.19
2022-10-11T13:41:29.375Z,103029.75
2022-10-11T13:43:58.283Z,103031.75
2022-10-11T13:46:28.412Z,103030.25
2022-10-11T13:49:40.426Z,103030.38
2022-10-11T13:52:22.954Z,103021.25
2022-10-11T13:55:09.097Z,103021.91
2022-10-11T13:57:44.721Z,103021.31
2022-10-11T14:00:26.197Z,103030.94
2022-10-11T14:03:00.521Z,103025.19
2022-10-11T14:05:35.200Z,103018.28
2022-10-11T14:08:17.968Z,103025.06
2022-10-11T14:10:51.680Z,103013.19
2022-10-11T14:13:34.652Z,103016.88
2022-10-11T14:16:08.230Z,103023.13
2022-10-11T14:18:49.624Z,103010.69
2022-10-11T14:21:48.207Z,103010.41
2022-10-11T14:24:16.294Z,103003.09
2022-10-11T14:26:45.776Z,103010.09
2022-10-11T14:29:32.532Z,103005.97
2022-10-11T14:32:05.604Z,102994.31
2022-10-11T14:34:33.438Z,103002.91
2022-10-11T14:37:00.303Z,102996.59
2022-10-11T14:39:29.554Z,102999.09
2022-10-11T14:41:56.630Z,102993.09
2022-10-11T14:44:23.831Z,102999.75
2022-10-11T14:46:54.119Z,103001.78
2022-10-11T14:49:29.401Z,102982.63
2022-10-11T14:51:57.749Z,102990.06
2022-10-11T14:54:26.683Z,102993.69
2022-10-11T14:56:55.389Z,102995.59
2022-10-11T14:59:25.156Z,102995.59
2022-10-11T15:01:54.008Z,102993.75
2022-10-11T15:04:21.554Z,102986.06
2022-10-11T15:06:48.582Z,102986.78
2022-10-11T15:09:16.995Z,102987.69
2022-10-11T15:11:43.982Z,102984.25
2022-10-11T15:14:10.655Z,102981.84
2022-10-11T15:16:37.230Z,102971.72
2022-10-11T15:19:04.006Z,102976.97
2022-10-11T15:21:30.983Z,102966.03
2022-10-11T15:23:57.663Z,102973.53
2022-10-11T15:26:29.230Z,102971.03
2022-10-11T15:28:57.692Z,102970.22
2022-10-11T15:31:24.304Z,102967.56
2022-10-11T15:33:51.101Z,102971.88
2022-10-11T15:36:20.817Z,102970.53
2022-10-11T15:38:48.225Z,102968.97
2022-10-11T15:41:18.977Z,102965.22
2022-10-11T15:43:48.646Z,102962.53
2022-10-11T15:46:18.763Z,102963.97
2022-10-11T15:48:46.583Z,102970.56
2022-10-11T15:51:13.446Z,102971.53
2022-10-11T15:53:41.244Z,102963.78
2022-10-11T15:56:12.478Z,102961.75
2022-10-11T15:58:41.589Z,102952.19
2022-10-11T16:01:15.013Z,102960.75
2022-10-11T16:03:42.265Z,102963.47
2022-10-11T16:06:10.927Z,102956.28
2022-10-11T16:08:39.309Z,102955.50
2022-10-11T16:11:09.653Z,102950.56
2022-10-11T16:13:37.159Z,102958.03
2022-10-11T16:16:07.341Z,102954.63
2022-10-11T16:18:36.156Z,102949.66
2022-10-11T16:21:07.682Z,102944.50
2022-10-11T16:23:34.839Z,102947.91
2022-10-11T16:26:05.287Z,102942.56
2022-10-11T16:28:35.630Z,102945.56
2022-10-11T16:31:10.225Z,102953.19
2022-10-11T16:33:46.832Z,102945.97
2022-10-11T16:36:41.064Z,102955.97
2022-10-11T16:39:16.786Z,102951.53
2022-10-11T16:41:50.983Z,102937.47
2022-10-11T16:47:01.628Z,102946.00
2022-10-11T16:49:28.809Z,102953.97
2022-10-11T16:51:59.505Z,102959.00
2022-10-11T16:54:41.690Z,102954.38
2022-10-11T16:57:15.787Z,102952.81
2022-10-11T16:59:43.108Z,102948.31
2022-10-11T17:02:26.611Z,102947.00
2022-10-11T17:04:55.334Z,102949.34
2022-10-11T17:07:22.927Z,102953.34
2022-10-11T17:09:49.964Z,102958.34
2022-10-11T17:12:19.927Z,102942.25
2022-10-11T17:14:50.231Z,102954.06
2022-10-11T17:17:18.017Z,102952.66
2022-10-11T17:19:45.497Z,102961.53
2022-10-11T17:22:14.216Z,102957.88
2022-10-11T17:24:40.820Z,102949.03
2022-10-11T17:27:07.469Z,102943.97
2022-10-11T17:29:34.193Z,102934.63
2022-10-11T17:32:01.786Z,102946.31
2022-10-11T17:34:29.623Z,102946.09
2022-10-11T17:36:56.637Z,102948.97
2022-10-11T17:39:24.084Z,102937.00
2022-10-11T17:41:50.992Z,102940.28
2022-10-11T17:44:19.695Z,102945.69
2022-10-11T17:46:47.101Z,102950.16
2022-10-11T17:49:16.023Z,102951.63
2022-10-11T17:51:43.525Z,102948.53
2022-10-11T17:54:13.655Z,102955.03
2022-10-11T17:56:43.207Z,102944.38
2022-10-11T17:59:16.155Z,102950.06
2022-10-11T18:01:45.843Z,102945.97
2022-10-11T18:04:16.763Z,102951.13
2022-10-11T18:06:46.610Z,102946.59
2022-10-11T18:09:15.191Z,102949.00
2022-10-11T18:11:43.207Z,102943.50
2022-10-11T18:14:09.845Z,102951.31
2022-10-11T18:16:38.022Z,102952.41
2022-10-11T18:19:07.790Z,102939.78
2022-10-11T18:21:37.604Z,102944.38
2022-10-11T18:24:15.788Z,102939.81
2022-10-11T18:26:43.978Z,102941.72
2022-10-11T18:29:13.090Z,102946.06
2022-10-11T18:31:40.673Z,102941.84
2022-10-11T18:34:11.674Z,102946.06
2022-10-11T18:36:39.901Z,102947.25
2022-10-11T18:39:08.936Z,102940.53
2022-10-11T18:41:37.912Z,102934.06
2022-10-11T18:44:10.926Z,102943.06
2022-10-11T18:46:38.642Z,102935.63
2022-10-11T18:49:05.477Z,102933.97
2022-10-11T18:51:37.038Z,102940.19
2022-10-11T18:54:07.102Z,102939.03
2022-10-11T18:56:37.106Z,102940.22
2022-10-11T18:59:05.098Z,102926.91
2022-10-11T19:01:42.021Z,102933.25
2022-10-11T19:04:10.178Z,102935.19
2022-10-11T19:06:40.740Z,102938.28
2022-10-11T19:09:22.327Z,102936.97
2022-10-11T19:11:55.655Z,102934.44
2022-10-11T19:14:26.195Z,102939.13
2022-10-11T19:16:54.156Z,102942.59
2022-10-11T19:19:24.291Z,102936.97
2022-10-11T19:21:52.469Z,102939.72
2022-10-11T19:24:22.493Z,102932.50
2022-10-11T19:26:49.612Z,102936.72
2022-10-11T19:29:21.659Z,102946.44
2022-10-11T19:31:54.006Z,102938.75
2022-10-11T19:34:21.432Z,102947.63
2022-10-11T19:36:53.342Z,102944.03
2022-10-11T19:39:22.487Z,102937.91
2022-10-11T19:41:49.663Z,102945.94
2022-10-11T19:44:16.594Z,102943.41
2022-10-11T19:46:51.902Z,102936.56
2022-10-11T19:49:25.401Z,102947.00
2022-10-11T19:51:53.222Z,102936.81
2022-10-11T19:54:20.029Z,102942.31
2022-10-11T19:56:48.140Z,102944.34
2022-10-11T19:59:15.445Z,102943.50
2022-10-11T20:01:42.315Z,102943.25
2022-10-11T20:04:27.490Z,102937.03
2022-10-11T20:06:58.362Z,102939.66
2022-10-11T20:09:29.656Z,102936.91
2022-10-11T20:11:57.453Z,102939.44
2022-10-11T20:14:24.355Z,102937.84
2022-10-11T20:16:50.983Z,102939.75
2022-10-11T20:19:18.146Z,102931.34
2022-10-11T20:21:45.464Z,102940.09
2022-10-11T20:24:12.922Z,102934.97
2022-10-11T20:26:40.226Z,102931.47
2022-10-11T20:29:06.943Z,102942.00
2022-10-11T20:31:40.730Z,102938.75
2022-10-11T20:34:07.728Z,102936.47
2022-10-11T20:36:36.085Z,102942.72
2022-10-11T20:39:03.670Z,102948.53
2022-10-11T20:41:32.838Z,102942.88
2022-10-11T20:44:01.089Z,102939.03
2022-10-11T20:46:31.355Z,102947.53
2022-10-11T20:49:02.027Z,102935.47
2022-10-11T20:51:30.912Z,102941.88
2022-10-11T20:53:58.465Z,102944.91
2022-10-11T20:56:25.337Z,102943.47
2022-10-11T20:58:57.882Z,102935.22
2022-10-11T21:01:26.981Z,102938.59
2022-10-11T21:03:53.939Z,102932.59
2022-10-11T21:06:20.580Z,102937.00
2022-10-11T21:08:47.169Z,102948.75
2022-10-11T21:11:13.840Z,102944.63
2022-10-11T21:13:40.524Z,102939.00
2022-10-11T21:16:14.766Z,102942.97
2022-10-11T21:18:41.747Z,102940.09
2022-10-11T21:21:10.586Z,102936.75
2022-10-11T21:23:37.236Z,102930.03
2022-10-11T21:26:10.413Z,102937.09
2022-10-11T21:28:38.256Z,102931.94
2022-10-11T21:31:06.483Z,102945.72
2022-10-11T21:33:34.406Z,102940.69
2022-10-11T21:36:13.052Z,102949.78
2022-10-11T21:38:40.199Z,102942.06
2022-10-11T21:41:19.136Z,102936.00
2022-10-11T21:43:45.948Z,102936.53
2022-10-11T21:46:19.132Z,102936.03
2022-10-11T21:48:46.122Z,102933.78
2022-10-11T21:51:23.182Z,102925.19
2022-10-11T21:53:50.447Z,102930.13
2022-10-11T21:56:17.406Z,102925.72
2022-10-11T21:58:47.034Z,102920.34
2022-10-11T22:01:13.968Z,102931.38
2022-10-11T22:03:40.473Z,102930.53
2022-10-11T22:06:06.976Z,102921.78
2022-10-11T22:08:33.690Z,102925.03
2022-10-11T22:11:01.121Z,102913.78
2022-10-11T22:13:30.283Z,102918.91
2022-10-11T22:15:56.749Z,102914.09
2022-10-11T22:18:24.141Z,102909.81
2022-10-11T22:20:50.892Z,102906.00
2022-10-11T22:23:18.965Z,102918.41
2022-10-11T22:25:46.124Z,102910.00
2022-10-11T22:28:13.115Z,102911.31
2022-10-11T22:30:39.608Z,102913.75
2022-10-11T22:33:06.052Z,102909.13
2022-10-11T22:35:37.378Z,102901.88
2022-10-11T22:38:06.170Z,102902.09
2022-10-11T22:40:32.889Z,102906.72
2022-10-11T22:42:59.370Z,102906.72
2022-10-11T22:45:25.838Z,102898.19
2022-10-11T22:47:52.452Z,102900.94
2022-10-11T22:50:18.899Z,102894.22
2022-10-11T22:52:45.341Z,102890.75
2022-10-11T22:55:15.131Z,102885.50
2022-10-11T22:57:44.084Z,102894.34
2022-10-11T23:00:11.033Z,102885.72
2022-10-11T23:02:37.495Z,102877.84
2022-10-11T23:05:04.185Z,102876.13
2022-10-11T23:07:30.630Z,102888.47
2022-10-11T23:09:57.131Z,102890.00
2022-10-11T23:12:23.627Z,102890.25
2022-10-11T23:14:50.110Z,102888.56
2022-10-11T23:17:16.697Z,102900.97
2022-10-11T23:19:43.211Z,102889.94
2022-10-11T23:22:09.671Z,102893.59
2022-10-11T23:24:36.137Z,102897.53
2022-10-11T23:27:02.663Z,102892.03
2022-10-11T23:29:32.945Z,102892.25
2022-10-11T23:31:59.762Z,102896.59
2022-10-11T23:34:26.179Z,102890.28
2022-10-11T23:36:52.618Z,102889.22
2022-10-11T23:39:19.309Z,102884.16
2022-10-11T23:41:45.765Z,102884.38
2022-10-11T23:44:12.384Z,102881.88
2022-10-11T23:46:38.807Z,102879.97
2022-10-11T23:49:05.385Z,102888.25
2022-10-11T23:51:31.902Z,102877.53
2022-10-11T23:53:58.606Z,102883.75
2022-10-11T23:56:25.065Z,102874.59
2022-10-11T23:58:51.573Z,102874.19
